Time;durP1;ratioP1;P1;durP2;ratioP2;P2;SDS_P1;SDS_P2;PMS_P1;PMS_P2;Temp;Humidity;BMP_temperature;BMP_pressure;BME280_temperature;BME280_humidity;BME280_pressure;Samples;Min_cycle;Max_cycle;Signal;HPM_P1;HPM_P2
2021/12/25 00:01:10;;;;;;;;;;;20.50;57.90;;;;;;5045082;28;19924;-67
2021/12/25 00:03:36;;;;;;;;;;;20.50;57.80;;;;;;5042777;28;20003;-70
2021/12/25 00:06:01;;;;;;;;;;;20.50;57.80;;;;;;5041798;28;19908;-67
2021/12/25 00:08:28;;;;;;;;;;;20.50;57.80;;;;;;5045413;28;19940;-70
2021/12/25 00:10:54;;;;;;;;;;;20.50;57.80;;;;;;5043950;28;20745;-70
2021/12/25 00:13:19;;;;;;;;;;;20.50;57.70;;;;;;5045630;28;19905;-66
2021/12/25 00:15:46;;;;;;;;;;;20.50;57.70;;;;;;5045115;28;19988;-70
2021/12/25 00:18:11;;;;;;;;;;;20.50;57.70;;;;;;5046088;28;19932;-67
2021/12/25 00:20:37;;;;;;;;;;;20.50;57.70;;;;;;5042502;28;20326;-66
2021/12/25 00:23:05;;;;;;;;;;;20.40;58.10;;;;;;5044696;28;19905;-66
2021/12/25 00:25:34;;;;;;;;;;;20.50;57.70;;;;;;5040612;28;19917;-70
2021/12/25 00:28:16;;;;;;;;;;;20.50;57.60;;;;;;5047630;28;19913;-66
2021/12/25 00:30:48;;;;;;;;;;;20.50;57.60;;;;;;5040754;28;19962;-66
2021/12/25 00:33:32;;;;;;;;;;;20.50;57.60;;;;;;5043125;28;20054;-65
2021/12/25 00:35:58;;;;;;;;;;;20.40;57.50;;;;;;5043133;28;19904;-67
2021/12/25 00:38:23;;;;;;;;;;;20.40;57.60;;;;;;5041766;28;20363;-67
2021/12/25 00:40:49;;;;;;;;;;;20.40;57.50;;;;;;5039273;28;19917;-67
2021/12/25 00:43:14;;;;;;;;;;;20.40;57.50;;;;;;5045860;28;19981;-66
2021/12/25 00:45:40;;;;;;;;;;;20.40;57.50;;;;;;5044368;28;20383;-65
2021/12/25 00:48:05;;;;;;;;;;;20.40;57.40;;;;;;5045900;28;20015;-66
2021/12/25 00:50:31;;;;;;;;;;;20.40;57.50;;;;;;5044648;28;19908;-65
2021/12/25 00:52:56;;;;;;;;;;;20.40;57.40;;;;;;5041357;28;19909;-67
2021/12/25 00:55:22;;;;;;;;;;;20.40;57.40;;;;;;5045801;28;20050;-67
2021/12/25 00:57:47;;;;;;;;;;;20.40;57.40;;;;;;5046119;28;19909;-66
2021/12/25 01:00:13;;;;;;;;;;;20.40;57.40;;;;;;5045346;28;19908;-69
2021/12/25 01:02:40;;;;;;;;;;;20.40;57.40;;;;;;5046112;28;19960;-66
2021/12/25 01:05:06;;;;;;;;;;;20.40;57.40;;;;;;5040373;28;19912;-65
2021/12/25 01:07:31;;;;;;;;;;;20.40;57.40;;;;;;5040876;28;19943;-65
2021/12/25 01:09:57;;;;;;;;;;;20.40;57.40;;;;;;5045645;28;19981;-70
2021/12/25 01:12:23;;;;;;;;;;;20.40;57.30;;;;;;5043918;28;20055;-65
2021/12/25 01:14:54;;;;;;;;;;;20.40;57.40;;;;;;5043996;28;19994;-66
2021/12/25 01:17:47;;;;;;;;;;;20.40;57.30;;;;;;5044522;28;19993;-67
2021/12/25 01:30:14;;;;;;;;;;;20.30;57.30;;;;;;5046100;28;19999;-66
2021/12/25 01:48:37;;;;;;;;;;;20.30;57.20;;;;;;5042634;28;20595;-66
2021/12/25 01:51:03;;;;;;;;;;;20.30;57.10;;;;;;5043273;28;19913;-69
2021/12/25 01:53:28;;;;;;;;;;;20.30;57.10;;;;;;5042150;28;19908;-66
2021/12/25 01:55:54;;;;;;;;;;;20.30;57.20;;;;;;5042585;28;19913;-70
2021/12/25 01:58:20;;;;;;;;;;;20.30;57.10;;;;;;5042376;28;20065;-67
2021/12/25 02:00:47;;;;;;;;;;;20.30;57.10;;;;;;5043736;28;20029;-69
2021/12/25 02:03:14;;;;;;;;;;;20.30;57.20;;;;;;5040808;28;19958;-66
2021/12/25 02:05:40;;;;;;;;;;;20.30;57.10;;;;;;5044189;28;19912;-66
2021/12/25 02:08:06;;;;;;;;;;;20.30;57.10;;;;;;5041278;28;19916;-65
2021/12/25 02:10:31;;;;;;;;;;;20.30;57.10;;;;;;5043614;28;20085;-69
2021/12/25 02:12:57;;;;;;;;;;;20.30;57.00;;;;;;5043658;28;20046;-67
2021/12/25 02:15:25;;;;;;;;;;;20.30;57.10;;;;;;5045337;28;21675;-65
2021/12/25 02:20:31;;;;;;;;;;;20.30;57.10;;;;;;5041460;28;19959;-68
2021/12/25 02:23:02;;;;;;;;;;;20.20;57.00;;;;;;5039752;28;19912;-67
2021/12/25 02:25:30;;;;;;;;;;;20.30;57.10;;;;;;5039790;28;19913;-65
2021/12/25 02:27:56;;;;;;;;;;;20.20;57.00;;;;;;5045096;28;19973;-65
2021/12/25 02:30:21;;;;;;;;;;;20.20;57.00;;;;;;5043944;28;19992;-66
2021/12/25 02:32:47;;;;;;;;;;;20.20;57.00;;;;;;5042242;28;19912;-68
2021/12/25 02:35:14;;;;;;;;;;;20.30;57.10;;;;;;5043669;28;19973;-68
2021/12/25 02:37:40;;;;;;;;;;;20.20;57.00;;;;;;5040643;28;19958;-67
2021/12/25 02:40:06;;;;;;;;;;;20.20;57.00;;;;;;5043839;28;20333;-69
2021/12/25 02:42:34;;;;;;;;;;;20.20;57.00;;;;;;5044263;28;19959;-67
2021/12/25 02:45:00;;;;;;;;;;;20.20;57.40;;;;;;5041192;28;19909;-65
2021/12/25 02:47:25;;;;;;;;;;;20.20;57.00;;;;;;5042958;28;19970;-66
2021/12/25 02:49:51;;;;;;;;;;;20.20;57.00;;;;;;5043940;28;19928;-67
2021/12/25 02:52:17;;;;;;;;;;;20.20;57.00;;;;;;5035917;28;19913;-67
2021/12/25 02:54:43;;;;;;;;;;;20.20;56.90;;;;;;5042341;28;19978;-67
2021/12/25 02:57:10;;;;;;;;;;;20.20;56.90;;;;;;5043955;28;19917;-67
2021/12/25 02:59:35;;;;;;;;;;;20.20;57.00;;;;;;5041951;28;20403;-66
2021/12/25 03:02:07;;;;;;;;;;;20.20;56.90;;;;;;5043995;28;19921;-70
2021/12/25 03:04:33;;;;;;;;;;;20.20;56.90;;;;;;5046759;28;19912;-67
2021/12/25 03:06:59;;;;;;;;;;;20.20;56.90;;;;;;5034654;28;20392;-67
2021/12/25 03:09:24;;;;;;;;;;;20.20;56.90;;;;;;5045098;28;19956;-65
2021/12/25 03:11:51;;;;;;;;;;;20.10;56.80;;;;;;5048831;28;20419;-70
2021/12/25 03:14:38;;;;;;;;;;;20.20;56.90;;;;;;5042566;28;19920;-67
2021/12/25 03:17:04;;;;;;;;;;;20.20;56.90;;;;;;5044381;28;19913;-70
2021/12/25 03:19:34;;;;;;;;;;;20.10;56.90;;;;;;5048464;28;19912;-69
2021/12/25 03:22:00;;;;;;;;;;;20.10;56.80;;;;;;5045491;28;19908;-66
2021/12/25 03:24:26;;;;;;;;;;;20.10;56.80;;;;;;5047021;28;19912;-70
2021/12/25 03:26:54;;;;;;;;;;;20.20;56.90;;;;;;5042977;28;20003;-65
2021/12/25 03:29:20;;;;;;;;;;;20.10;56.80;;;;;;5047025;28;19916;-67
2021/12/25 03:31:51;;;;;;;;;;;20.10;56.70;;;;;;5046326;28;19923;-65
2021/12/25 03:34:17;;;;;;;;;;;20.10;56.80;;;;;;5043698;28;20801;-65
2021/12/25 03:36:43;;;;;;;;;;;20.10;56.80;;;;;;5042023;28;19913;-65
2021/12/25 03:39:08;;;;;;;;;;;20.10;56.80;;;;;;5048766;28;19912;-67
2021/12/25 03:41:34;;;;;;;;;;;20.10;56.70;;;;;;5042237;28;19963;-70
2021/12/25 03:44:00;;;;;;;;;;;20.10;56.70;;;;;;5045950;28;19915;-67
2021/12/25 03:46:28;;;;;;;;;;;20.10;57.20;;;;;;5046055;28;20446;-65
2021/12/25 03:59:32;;;;;;;;;;;20.10;56.70;;;;;;5041129;28;19939;-67
2021/12/25 04:02:04;;;;;;;;;;;20.10;56.70;;;;;;5045204;28;20590;-70
2021/12/25 04:04:36;;;;;;;;;;;20.10;56.80;;;;;;5046473;28;19977;-65
2021/12/25 04:07:08;;;;;;;;;;;20.10;56.60;;;;;;5043367;28;20011;-64
2021/12/25 04:09:35;;;;;;;;;;;20.10;56.70;;;;;;5046669;28;19921;-67
2021/12/25 04:12:02;;;;;;;;;;;20.10;56.70;;;;;;5045855;28;19949;-65
2021/12/25 04:14:28;;;;;;;;;;;20.10;56.70;;;;;;5046123;28;20011;-69
2021/12/25 04:16:53;;;;;;;;;;;20.10;56.60;;;;;;5045786;28;20763;-67
2021/12/25 04:19:19;;;;;;;;;;;20.10;56.70;;;;;;5046664;28;19912;-69
2021/12/25 04:21:59;;;;;;;;;;;20.10;56.70;;;;;;5042892;28;19929;-69
2021/12/25 04:24:29;;;;;;;;;;;20.10;56.70;;;;;;5043526;28;19917;-67
2021/12/25 04:26:54;;;;;;;;;;;20.10;56.70;;;;;;5046813;28;19916;-66
2021/12/25 05:04:07;;;;;;;;;;;20.10;56.70;;;;;;5044191;28;19931;-65
2021/12/25 05:06:32;;;;;;;;;;;20.00;56.70;;;;;;5043503;28;19915;-67
2021/12/25 05:08:58;;;;;;;;;;;20.10;56.70;;;;;;5044263;28;19920;-66
2021/12/25 05:11:23;;;;;;;;;;;20.10;56.70;;;;;;5045214;28;19986;-70
2021/12/25 05:13:50;;;;;;;;;;;20.00;56.60;;;;;;5044728;28;19917;-67
2021/12/25 05:16:20;;;;;;;;;;;20.00;56.60;;;;;;5043835;28;19913;-65
2021/12/25 05:18:45;;;;;;;;;;;20.10;56.80;;;;;;5043018;28;19952;-67
2021/12/25 05:21:13;;;;;;;;;;;20.10;56.70;;;;;;5043611;28;19979;-68
2021/12/25 05:23:39;;;;;;;;;;;20.10;56.70;;;;;;5040710;28;19909;-65
2021/12/25 05:26:04;;;;;;;;;;;20.10;56.70;;;;;;5040806;28;20291;-67
2021/12/25 05:28:39;;;;;;;;;;;20.00;56.70;;;;;;5042345;28;20015;-66
2021/12/25 05:31:05;;;;;;;;;;;20.00;56.60;;;;;;5044290;28;19958;-66
2021/12/25 05:33:31;;;;;;;;;;;20.00;56.70;;;;;;5039968;28;19913;-66
2021/12/25 05:35:56;;;;;;;;;;;20.00;56.60;;;;;;5042488;28;20011;-64
2021/12/25 05:38:22;;;;;;;;;;;20.10;56.70;;;;;;5042399;28;20013;-64
2021/12/25 05:40:48;;;;;;;;;;;20.00;56.60;;;;;;5043816;28;19924;-64
2021/12/25 05:43:13;;;;;;;;;;;20.00;56.70;;;;;;5042386;28;19919;-64
2021/12/25 05:45:39;;;;;;;;;;;20.00;56.70;;;;;;5041985;28;19959;-66
2021/12/25 05:48:05;;;;;;;;;;;20.00;56.60;;;;;;5043925;28;20331;-65
2021/12/25 05:50:31;;;;;;;;;;;20.00;56.60;;;;;;5044196;28;19923;-66
2021/12/25 05:52:57;;;;;;;;;;;20.10;56.70;;;;;;5041924;28;19913;-70
2021/12/25 05:55:23;;;;;;;;;;;20.00;56.60;;;;;;5041276;28;19913;-69
2021/12/25 05:57:49;;;;;;;;;;;20.00;56.60;;;;;;5045298;28;19915;-65
2021/12/25 06:00:15;;;;;;;;;;;20.10;56.70;;;;;;5044647;28;19916;-65
2021/12/25 06:02:40;;;;;;;;;;;20.00;56.60;;;;;;5042095;28;19916;-69
2021/12/25 06:05:06;;;;;;;;;;;20.00;56.60;;;;;;5039218;28;19931;-67
2021/12/25 06:07:32;;;;;;;;;;;20.00;56.60;;;;;;5040921;28;20336;-70
2021/12/25 06:09:58;;;;;;;;;;;20.00;56.60;;;;;;5044236;28;19927;-70
2021/12/25 06:12:24;;;;;;;;;;;20.00;56.60;;;;;;5040497;28;19920;-65
2021/12/25 06:14:52;;;;;;;;;;;20.00;56.60;;;;;;5041630;28;19905;-66
2021/12/25 06:17:17;;;;;;;;;;;20.00;56.60;;;;;;5041128;28;19987;-66
2021/12/25 06:19:43;;;;;;;;;;;20.00;56.60;;;;;;5045240;28;19988;-70
2021/12/25 06:22:08;;;;;;;;;;;20.00;56.60;;;;;;5041211;28;20019;-65
2021/12/25 06:24:34;;;;;;;;;;;20.00;56.60;;;;;;5044634;28;19916;-65
2021/12/25 06:26:59;;;;;;;;;;;20.00;56.60;;;;;;5043627;28;19909;-65
2021/12/25 06:29:25;;;;;;;;;;;20.00;56.50;;;;;;5045391;28;20348;-66
2021/12/25 06:31:52;;;;;;;;;;;20.00;56.50;;;;;;5041938;28;19939;-65
2021/12/25 06:34:18;;;;;;;;;;;20.00;56.50;;;;;;5041079;28;19905;-69
2021/12/25 06:36:43;;;;;;;;;;;20.00;56.50;;;;;;5038925;28;20435;-65
2021/12/25 06:39:14;;;;;;;;;;;20.00;56.50;;;;;;5044829;28;19917;-68
2021/12/25 06:41:41;;;;;;;;;;;20.00;56.50;;;;;;5047586;28;19951;-64
2021/12/25 06:44:06;;;;;;;;;;;20.00;56.50;;;;;;5047715;28;19913;-67
2021/12/25 06:46:32;;;;;;;;;;;20.00;56.50;;;;;;5045633;28;19965;-66
2021/12/25 06:48:57;;;;;;;;;;;20.00;56.50;;;;;;5047465;28;19913;-67
2021/12/25 06:51:23;;;;;;;;;;;20.00;56.50;;;;;;5045576;28;19913;-68
2021/12/25 06:53:48;;;;;;;;;;;20.00;56.50;;;;;;5047866;28;19956;-68
2021/12/25 06:56:14;;;;;;;;;;;20.00;56.50;;;;;;5047073;28;19939;-67
2021/12/25 06:58:40;;;;;;;;;;;20.00;56.50;;;;;;5046772;28;20011;-67
2021/12/25 07:01:08;;;;;;;;;;;20.00;56.30;;;;;;5045116;28;19989;-65
2021/12/25 07:03:34;;;;;;;;;;;20.00;55.80;;;;;;5045750;28;19912;-66
2021/12/25 07:06:00;;;;;;;;;;;20.00;55.50;;;;;;5045894;28;19920;-66
2021/12/25 07:08:25;;;;;;;;;;;20.00;54.90;;;;;;5046000;28;19928;-65
2021/12/25 07:10:51;;;;;;;;;;;20.00;54.80;;;;;;5045282;28;19912;-66
2021/12/25 07:13:18;;;;;;;;;;;19.90;54.60;;;;;;5047950;28;19909;-67
2021/12/25 07:15:44;;;;;;;;;;;19.90;54.60;;;;;;5046910;28;20113;-67
2021/12/25 07:18:10;;;;;;;;;;;19.90;54.60;;;;;;5045766;28;20521;-66
2021/12/25 07:20:35;;;;;;;;;;;20.00;54.70;;;;;;5041352;28;19916;-65
2021/12/25 07:23:00;;;;;;;;;;;19.90;54.70;;;;;;5044967;28;19985;-67
2021/12/25 07:25:26;;;;;;;;;;;19.90;54.80;;;;;;5043425;28;19912;-66
2021/12/25 07:27:52;;;;;;;;;;;19.90;54.90;;;;;;5047119;28;19936;-65
2021/12/25 07:30:18;;;;;;;;;;;19.90;54.90;;;;;;5042927;28;19927;-67
2021/12/25 07:32:44;;;;;;;;;;;19.90;55.00;;;;;;5045462;28;20380;-65
2021/12/25 07:35:09;;;;;;;;;;;19.90;55.00;;;;;;5039069;28;19915;-69
2021/12/25 07:37:35;;;;;;;;;;;19.90;55.10;;;;;;5043510;28;19916;-66
2021/12/25 07:40:01;;;;;;;;;;;19.90;55.20;;;;;;5045166;28;19909;-69
2021/12/25 07:42:27;;;;;;;;;;;19.90;55.40;;;;;;5044001;28;20458;-69
2021/12/25 07:44:55;;;;;;;;;;;19.90;55.50;;;;;;5047405;28;20380;-65
2021/12/25 07:47:22;;;;;;;;;;;20.00;55.70;;;;;;5047373;28;20564;-67
2021/12/25 07:49:49;;;;;;;;;;;20.00;55.80;;;;;;5044299;28;20498;-68
2021/12/25 07:52:15;;;;;;;;;;;20.00;55.80;;;;;;5042776;28;20356;-65
2021/12/25 07:54:41;;;;;;;;;;;20.00;55.90;;;;;;5047589;28;19913;-68
2021/12/25 07:57:06;;;;;;;;;;;19.90;56.00;;;;;;5046463;28;19912;-69
2021/12/25 07:59:31;;;;;;;;;;;19.90;56.10;;;;;;5047492;28;19931;-65
2021/12/25 08:01:57;;;;;;;;;;;20.00;56.20;;;;;;5038973;28;20434;-68
2021/12/25 08:04:23;;;;;;;;;;;20.00;56.20;;;;;;5046232;28;19998;-67
2021/12/25 08:06:49;;;;;;;;;;;20.00;56.30;;;;;;5040412;28;19971;-69
2021/12/25 08:09:17;;;;;;;;;;;20.00;56.30;;;;;;5045522;28;19923;-65
2021/12/25 08:11:42;;;;;;;;;;;20.00;56.30;;;;;;5046894;28;19908;-66
2021/12/25 08:14:08;;;;;;;;;;;20.00;56.20;;;;;;5046860;28;20042;-66
2021/12/25 08:16:33;;;;;;;;;;;20.00;56.20;;;;;;5041406;28;20304;-66
2021/12/25 08:18:59;;;;;;;;;;;20.00;56.20;;;;;;5044542;28;19940;-66
2021/12/25 08:21:24;;;;;;;;;;;20.00;56.20;;;;;;5038087;28;19909;-68
2021/12/25 08:23:50;;;;;;;;;;;19.90;56.10;;;;;;5044108;28;19916;-63
2021/12/25 08:26:15;;;;;;;;;;;20.00;56.30;;;;;;5041646;28;20269;-69
2021/12/25 08:28:41;;;;;;;;;;;20.10;56.40;;;;;;5044491;28;19913;-63
2021/12/25 08:31:07;;;;;;;;;;;20.10;56.30;;;;;;5043419;28;20315;-67
2021/12/25 08:33:32;;;;;;;;;;;20.20;56.40;;;;;;5044552;28;20726;-66
2021/12/25 08:35:58;;;;;;;;;;;20.20;56.30;;;;;;5041449;28;19996;-63
2021/12/25 08:38:23;;;;;;;;;;;20.20;56.30;;;;;;5040212;28;19986;-66
2021/12/25 08:40:53;;;;;;;;;;;20.30;56.30;;;;;;5041596;28;19913;-67
2021/12/25 08:43:24;;;;;;;;;;;20.30;56.40;;;;;;5040152;28;19916;-69
2021/12/25 08:46:00;;;;;;;;;;;20.30;56.40;;;;;;5041130;28;19915;-64
2021/12/25 08:48:26;;;;;;;;;;;20.40;56.50;;;;;;5042508;28;19923;-66
2021/12/25 08:50:53;;;;;;;;;;;20.40;56.50;;;;;;5041862;28;19939;-65
2021/12/25 08:53:19;;;;;;;;;;;20.40;56.50;;;;;;5022910;28;19913;-67
2021/12/25 08:55:46;;;;;;;;;;;20.40;56.60;;;;;;5040930;28;19909;-67
2021/12/25 08:58:11;;;;;;;;;;;20.40;56.70;;;;;;5041868;28;19917;-66
2021/12/25 09:00:37;;;;;;;;;;;20.40;56.70;;;;;;5042097;28;20378;-65
2021/12/25 09:03:03;;;;;;;;;;;20.40;56.70;;;;;;5040530;28;19923;-65
2021/12/25 09:05:28;;;;;;;;;;;20.40;56.70;;;;;;5042467;28;20008;-65
2021/12/25 09:07:54;;;;;;;;;;;20.40;56.70;;;;;;5039753;28;19954;-69
2021/12/25 09:10:19;;;;;;;;;;;20.40;56.80;;;;;;5042855;28;20301;-66
2021/12/25 09:12:45;;;;;;;;;;;20.40;56.80;;;;;;5044436;28;19908;-66
2021/12/25 09:15:11;;;;;;;;;;;20.40;56.70;;;;;;5041789;28;19943;-65
2021/12/25 09:17:37;;;;;;;;;;;20.40;56.70;;;;;;5041000;28;19963;-66
2021/12/25 09:20:03;;;;;;;;;;;20.40;56.70;;;;;;5041337;28;19919;-64
2021/12/25 09:22:29;;;;;;;;;;;20.40;56.70;;;;;;5035353;28;19916;-64
2021/12/25 09:24:54;;;;;;;;;;;20.40;56.80;;;;;;5043024;28;19916;-66
2021/12/25 09:27:20;;;;;;;;;;;20.40;56.70;;;;;;5040663;28;19917;-67
2021/12/25 09:29:47;;;;;;;;;;;20.40;56.70;;;;;;5040112;28;20011;-63
2021/12/25 09:32:13;;;;;;;;;;;20.40;56.70;;;;;;5040659;28;19935;-65
2021/12/25 09:34:39;;;;;;;;;;;20.40;56.70;;;;;;5039164;28;19909;-66
2021/12/25 09:37:06;;;;;;;;;;;20.40;56.70;;;;;;5038097;28;19917;-68
2021/12/25 09:39:32;;;;;;;;;;;20.40;56.70;;;;;;5043146;28;20361;-64
2021/12/25 09:41:57;;;;;;;;;;;20.40;56.70;;;;;;5040723;28;19962;-64
2021/12/25 09:44:23;;;;;;;;;;;20.40;56.70;;;;;;5043746;28;20031;-65
2021/12/25 09:46:48;;;;;;;;;;;20.40;56.70;;;;;;5037569;28;19991;-66
2021/12/25 09:49:14;;;;;;;;;;;20.40;57.00;;;;;;5043191;28;19916;-66
2021/12/25 09:51:40;;;;;;;;;;;20.50;57.10;;;;;;5038059;28;20274;-66
2021/12/25 09:54:07;;;;;;;;;;;20.40;57.10;;;;;;5043216;28;19912;-65
2021/12/25 09:56:34;;;;;;;;;;;20.50;57.20;;;;;;5041446;28;19908;-65
2021/12/25 09:59:00;;;;;;;;;;;20.50;57.30;;;;;;5041603;28;19916;-67
2021/12/25 10:01:42;;;;;;;;;;;20.40;57.30;;;;;;5035168;28;19922;-63
2021/12/25 10:04:09;;;;;;;;;;;20.50;57.30;;;;;;5034312;28;20007;-67
2021/12/25 10:06:40;;;;;;;;;;;20.50;57.30;;;;;;5033105;28;19959;-67
2021/12/25 10:09:13;;;;;;;;;;;20.50;57.20;;;;;;5042228;28;20324;-67
2021/12/25 10:11:55;;;;;;;;;;;20.50;57.20;;;;;;5042687;28;19908;-63
2021/12/25 10:14:21;;;;;;;;;;;20.50;57.20;;;;;;5051412;28;19971;-66
2021/12/25 10:16:46;;;;;;;;;;;20.50;57.20;;;;;;5034659;28;19917;-66
2021/12/25 10:19:16;;;;;;;;;;;20.50;57.10;;;;;;5040867;28;19908;-67
2021/12/25 10:21:42;;;;;;;;;;;20.50;57.10;;;;;;5037812;28;20013;-64
2021/12/25 10:24:15;;;;;;;;;;;20.50;57.00;;;;;;5041819;28;19912;-67
2021/12/25 10:26:42;;;;;;;;;;;20.50;56.90;;;;;;5043374;28;19919;-62
2021/12/25 10:29:16;;;;;;;;;;;20.50;56.90;;;;;;5038927;28;19935;-64
2021/12/25 10:31:42;;;;;;;;;;;20.50;56.80;;;;;;5036424;28;19916;-67
2021/12/25 10:34:21;;;;;;;;;;;20.50;56.80;;;;;;5040986;28;20259;-67
2021/12/25 10:36:47;;;;;;;;;;;20.50;56.80;;;;;;5039505;28;19916;-67
2021/12/25 10:39:16;;;;;;;;;;;20.50;56.70;;;;;;5040305;28;19916;-67
2021/12/25 10:41:53;;;;;;;;;;;20.50;56.70;;;;;;5038647;28;20003;-66
2021/12/25 10:44:21;;;;;;;;;;;20.50;56.70;;;;;;5036111;28;19954;-66
2021/12/25 10:46:57;;;;;;;;;;;20.50;56.60;;;;;;5039091;28;19909;-64
2021/12/25 10:49:24;;;;;;;;;;;20.50;56.60;;;;;;5039746;28;20008;-64
2021/12/25 10:51:49;;;;;;;;;;;20.50;56.60;;;;;;5037725;28;19956;-67
2021/12/25 10:54:17;;;;;;;;;;;20.50;56.60;;;;;;5036817;28;20339;-66
2021/12/25 10:56:43;;;;;;;;;;;20.50;56.60;;;;;;5043628;28;20383;-65
2021/12/25 10:59:11;;;;;;;;;;;20.50;56.60;;;;;;5040262;28;19920;-63
2021/12/25 11:01:38;;;;;;;;;;;20.50;56.60;;;;;;5035430;28;19921;-64
2021/12/25 11:04:04;;;;;;;;;;;20.50;56.60;;;;;;5041360;28;19909;-67
2021/12/25 11:06:31;;;;;;;;;;;20.50;56.60;;;;;;5037544;28;20802;-64
2021/12/25 11:08:58;;;;;;;;;;;20.50;56.50;;;;;;5044357;28;19921;-64
2021/12/25 11:11:23;;;;;;;;;;;20.50;56.50;;;;;;5040059;28;19909;-66
2021/12/25 11:13:49;;;;;;;;;;;20.50;56.50;;;;;;5043209;28;19920;-67
2021/12/25 11:16:18;;;;;;;;;;;20.50;56.50;;;;;;5035431;28;19940;-67
2021/12/25 11:19:05;;;;;;;;;;;20.50;56.40;;;;;;5052851;28;19921;-64
2021/12/25 11:21:35;;;;;;;;;;;20.50;56.40;;;;;;5037310;28;19913;-65
2021/12/25 11:24:12;;;;;;;;;;;20.50;56.40;;;;;;5046417;28;19920;-67
2021/12/25 11:26:39;;;;;;;;;;;20.50;56.40;;;;;;5044886;28;20000;-65
2021/12/25 11:29:06;;;;;;;;;;;20.50;56.40;;;;;;5039557;28;19984;-63
2021/12/25 11:31:32;;;;;;;;;;;20.50;56.40;;;;;;5041700;28;19967;-66
2021/12/25 11:33:57;;;;;;;;;;;20.50;56.40;;;;;;5044525;28;19964;-63
2021/12/25 11:36:23;;;;;;;;;;;20.40;56.30;;;;;;5042234;28;19913;-66
2021/12/25 11:38:50;;;;;;;;;;;20.50;56.30;;;;;;5047133;28;19921;-67
2021/12/25 11:41:15;;;;;;;;;;;20.50;56.30;;;;;;5042920;28;19909;-67
2021/12/25 11:43:45;;;;;;;;;;;20.40;56.70;;;;;;5039914;28;20440;-64
2021/12/25 11:46:11;;;;;;;;;;;20.50;56.30;;;;;;5045669;28;19948;-67
2021/12/25 11:48:38;;;;;;;;;;;20.50;56.20;;;;;;5040958;28;19970;-66
2021/12/25 11:51:05;;;;;;;;;;;20.40;56.20;;;;;;5042244;28;19916;-64
2021/12/25 11:54:04;;;;;;;;;;;20.40;56.20;;;;;;5045647;28;19917;-66
2021/12/25 11:56:42;;;;;;;;;;;20.50;56.20;;;;;;5043155;28;19944;-63
2021/12/25 11:59:17;;;;;;;;;;;20.40;56.10;;;;;;5043287;28;19913;-66
2021/12/25 12:01:44;;;;;;;;;;;20.40;56.10;;;;;;5046337;28;19951;-65
2021/12/25 12:04:27;;;;;;;;;;;20.40;56.10;;;;;;5044472;28;19915;-67
2021/12/25 12:06:56;;;;;;;;;;;20.40;56.10;;;;;;5042240;28;20340;-64
2021/12/25 12:09:21;;;;;;;;;;;20.40;56.10;;;;;;5044180;28;19912;-67
2021/12/25 12:11:48;;;;;;;;;;;20.40;56.00;;;;;;5047887;28;19992;-68
2021/12/25 12:14:21;;;;;;;;;;;20.40;56.00;;;;;;5040916;28;19967;-66
2021/12/25 12:16:48;;;;;;;;;;;20.40;56.00;;;;;;5046145;28;19919;-65
2021/12/25 12:21:57;;;;;;;;;;;20.40;56.00;;;;;;5043866;28;20225;-64
2021/12/25 12:27:02;;;;;;;;;;;20.40;56.00;;;;;;5042148;28;20631;-67
2021/12/25 12:29:39;;;;;;;;;;;20.40;56.10;;;;;;5044128;28;20025;-66
2021/12/25 12:32:06;;;;;;;;;;;20.40;56.20;;;;;;5044555;28;19921;-65
2021/12/25 12:34:31;;;;;;;;;;;20.40;56.30;;;;;;5036253;28;19964;-66
2021/12/25 12:37:15;;;;;;;;;;;20.40;56.30;;;;;;5039341;28;20003;-65
2021/12/25 12:39:42;;;;;;;;;;;20.40;56.30;;;;;;5042906;28;20766;-64
2021/12/25 12:42:11;;;;;;;;;;;20.40;56.40;;;;;;5043794;28;20356;-66
2021/12/25 12:44:37;;;;;;;;;;;20.40;56.40;;;;;;5043624;28;19913;-67
2021/12/25 12:47:04;;;;;;;;;;;20.50;56.50;;;;;;5044727;28;19909;-67
2021/12/25 12:49:31;;;;;;;;;;;20.40;56.40;;;;;;5042611;28;19935;-63
2021/12/25 12:52:15;;;;;;;;;;;20.40;56.50;;;;;;5040759;28;19913;-66
2021/12/25 12:54:46;;;;;;;;;;;20.50;56.60;;;;;;5036813;28;20347;-65
2021/12/25 12:57:16;;;;;;;;;;;20.50;56.60;;;;;;5041096;28;19992;-63
2021/12/25 12:59:42;;;;;;;;;;;20.50;56.60;;;;;;5042483;28;19920;-66
2021/12/25 13:02:11;;;;;;;;;;;20.50;56.60;;;;;;5043575;28;20257;-66
2021/12/25 13:04:47;;;;;;;;;;;20.40;56.50;;;;;;5044940;28;20476;-67
2021/12/25 13:07:14;;;;;;;;;;;20.50;56.50;;;;;;5042493;28;19916;-65
2021/12/25 13:09:49;;;;;;;;;;;20.50;56.40;;;;;;5048701;28;19913;-66
2021/12/25 13:12:32;;;;;;;;;;;20.50;56.40;;;;;;5041496;28;20078;-64
2021/12/25 13:14:59;;;;;;;;;;;20.50;56.40;;;;;;5044528;28;20374;-63
2021/12/25 13:17:24;;;;;;;;;;;20.50;56.40;;;;;;5041445;28;20360;-67
2021/12/25 13:19:50;;;;;;;;;;;20.50;56.40;;;;;;5043364;28;19912;-64
2021/12/25 13:22:15;;;;;;;;;;;20.50;56.40;;;;;;5036593;28;20003;-64
2021/12/25 13:24:41;;;;;;;;;;;20.40;56.30;;;;;;5043131;28;19917;-65
2021/12/25 13:27:06;;;;;;;;;;;20.50;56.30;;;;;;5045738;28;19999;-66
2021/12/25 13:29:32;;;;;;;;;;;20.50;56.30;;;;;;5045279;28;20382;-65
2021/12/25 13:31:59;;;;;;;;;;;20.40;56.20;;;;;;5043123;28;19924;-68
2021/12/25 13:34:24;;;;;;;;;;;20.40;56.20;;;;;;5037222;28;19920;-66
2021/12/25 13:36:52;;;;;;;;;;;20.40;56.10;;;;;;5040589;28;19908;-64
2021/12/25 13:39:25;;;;;;;;;;;20.40;56.10;;;;;;5042646;28;19928;-66
2021/12/25 13:41:53;;;;;;;;;;;20.40;56.10;;;;;;5044344;28;19917;-68
2021/12/25 13:44:23;;;;;;;;;;;20.40;56.10;;;;;;5039174;28;19913;-66
2021/12/25 13:46:54;;;;;;;;;;;20.40;56.10;;;;;;5043313;28;20284;-68
2021/12/25 13:49:35;;;;;;;;;;;20.40;56.10;;;;;;5045614;28;20011;-65
2021/12/25 13:52:03;;;;;;;;;;;20.40;56.10;;;;;;5039941;28;20000;-65
2021/12/25 13:54:29;;;;;;;;;;;20.40;56.00;;;;;;5044042;28;20426;-68
2021/12/25 13:56:55;;;;;;;;;;;20.40;56.00;;;;;;5039959;28;19943;-63
2021/12/25 13:59:23;;;;;;;;;;;20.40;56.00;;;;;;5042572;28;20007;-66
2021/12/25 14:02:03;;;;;;;;;;;20.40;56.00;;;;;;5042494;28;19970;-63
2021/12/25 14:04:28;;;;;;;;;;;20.40;56.00;;;;;;5042845;28;19958;-68
2021/12/25 14:06:54;;;;;;;;;;;20.40;56.00;;;;;;5038515;28;20565;-66
2021/12/25 14:09:20;;;;;;;;;;;20.40;56.00;;;;;;5041624;28;19916;-66
2021/12/25 14:11:52;;;;;;;;;;;20.40;55.90;;;;;;5042319;28;19930;-66
2021/12/25 14:14:19;;;;;;;;;;;20.40;55.90;;;;;;5039838;28;19917;-64
2021/12/25 14:16:44;;;;;;;;;;;20.40;55.90;;;;;;5043960;28;20315;-64
2021/12/25 14:19:13;;;;;;;;;;;20.40;55.90;;;;;;5046203;28;19962;-64
2021/12/25 14:21:39;;;;;;;;;;;20.40;56.00;;;;;;5039788;28;19908;-65
2021/12/25 14:24:13;;;;;;;;;;;20.40;55.90;;;;;;5043453;28;19916;-66
2021/12/25 14:26:39;;;;;;;;;;;20.40;55.90;;;;;;5043607;28;19909;-66
2021/12/25 14:29:19;;;;;;;;;;;20.40;55.90;;;;;;5044766;28;19916;-66
2021/12/25 14:31:45;;;;;;;;;;;20.40;55.90;;;;;;5040404;28;19943;-65
2021/12/25 14:34:11;;;;;;;;;;;20.40;55.80;;;;;;5039575;28;20003;-64
2021/12/25 14:36:37;;;;;;;;;;;20.40;55.80;;;;;;5041040;28;19940;-65
2021/12/25 14:39:04;;;;;;;;;;;20.30;55.80;;;;;;5044328;28;20202;-65
2021/12/25 14:41:31;;;;;;;;;;;20.40;55.80;;;;;;5043086;28;19920;-67
2021/12/25 14:43:56;;;;;;;;;;;20.40;55.80;;;;;;5041677;28;19917;-66
2021/12/25 14:46:23;;;;;;;;;;;20.30;55.80;;;;;;5041466;28;19908;-67
2021/12/25 14:48:49;;;;;;;;;;;20.30;55.80;;;;;;5041043;28;19921;-64
2021/12/25 14:51:15;;;;;;;;;;;20.30;55.80;;;;;;5037226;28;19905;-66
2021/12/25 14:53:46;;;;;;;;;;;20.30;55.80;;;;;;5040313;28;20008;-67
2021/12/25 14:56:22;;;;;;;;;;;20.30;55.70;;;;;;5040524;28;20035;-66
2021/12/25 14:58:49;;;;;;;;;;;20.40;55.80;;;;;;5038598;28;19920;-63
2021/12/25 15:01:22;;;;;;;;;;;20.30;55.70;;;;;;5041118;28;19931;-65
2021/12/25 15:04:03;;;;;;;;;;;20.40;55.80;;;;;;5044317;28;20137;-66
2021/12/25 15:06:29;;;;;;;;;;;20.30;55.90;;;;;;5043083;28;19923;-64
2021/12/25 15:09:08;;;;;;;;;;;20.30;55.80;;;;;;5046014;28;19920;-64
2021/12/25 15:11:36;;;;;;;;;;;20.40;56.10;;;;;;5044271;28;20042;-64
2021/12/25 15:14:04;;;;;;;;;;;20.40;56.10;;;;;;5043632;28;20698;-66
2021/12/25 15:16:34;;;;;;;;;;;20.40;56.10;;;;;;5042628;28;20782;-64
2021/12/25 15:18:59;;;;;;;;;;;20.50;56.20;;;;;;5041770;28;20335;-64
2021/12/25 15:21:25;;;;;;;;;;;20.50;56.20;;;;;;5038514;28;20023;-66
2021/12/25 15:24:07;;;;;;;;;;;20.60;56.20;;;;;;5042334;28;19936;-67
2021/12/25 15:26:42;;;;;;;;;;;20.60;56.20;;;;;;5043806;28;20027;-67
2021/12/25 15:29:07;;;;;;;;;;;20.60;56.20;;;;;;5044795;28;19931;-66
2021/12/25 15:31:39;;;;;;;;;;;20.70;56.20;;;;;;5043595;28;19921;-64
2021/12/25 15:34:13;;;;;;;;;;;20.70;56.30;;;;;;5043588;28;20143;-65
2021/12/25 15:36:45;;;;;;;;;;;20.70;56.30;;;;;;5038359;28;19936;-67
2021/12/25 15:39:18;;;;;;;;;;;20.70;56.40;;;;;;5042573;28;19917;-67